Time;durP1;ratioP1;P1;durP2;ratioP2;P2;SDS_P1;SDS_P2;PMS_P1;PMS_P2;Temp;Humidity;BMP_temperature;BMP_pressure;BME280_temperature;BME280_humidity;BME280_pressure;Samples;Min_cycle;Max_cycle;Signal;HPM_P1;HPM_P2
2023/12/08 00:00:55;;;;;;;14.13;11.07;;;;;21.60;99769.00;;;;2078482;28;20218;-71
2023/12/08 00:01:56;;;;;;;18.43;11.60;;;;;21.60;99778.00;;;;2071278;28;20222;-69
2023/12/08 00:02:56;;;;;;;26.77;13.40;;;;;21.50;99778.00;;;;2068531;28;20226;-69
2023/12/08 00:03:56;;;;;;;14.17;9.30;;;;;21.60;99678.00;;;;2076519;28;20228;-69
2023/12/08 00:04:57;;;;;;;14.13;8.60;;;;;21.60;99759.00;;;;2070410;28;20599;-69
2023/12/08 00:05:57;;;;;;;24.97;8.03;;;;;21.60;99746.00;;;;2079200;28;20734;-69
2023/12/08 00:06:57;;;;;;;9.77;8.13;;;;;21.50;99745.00;;;;2075152;28;20220;-69
2023/12/08 00:07:58;;;;;;;14.30;7.90;;;;;21.50;99747.00;;;;2086484;28;20224;-69
2023/12/08 00:08:58;;;;;;;10.50;7.70;;;;;21.50;99739.00;;;;2080869;28;20249;-69
2023/12/08 00:09:58;;;;;;;12.13;7.80;;;;;21.50;99733.00;;;;2068887;28;20228;-69
2023/12/08 00:10:59;;;;;;;10.70;8.50;;;;;21.50;99728.00;;;;2079554;28;20218;-69
2023/12/08 00:11:59;;;;;;;9.37;6.33;;;;;21.50;99733.00;;;;2079342;28;20221;-69
2023/12/08 00:12:59;;;;;;;8.17;6.93;;;;;21.50;99719.00;;;;2079675;28;20214;-69
2023/12/08 00:14:00;;;;;;;8.83;6.73;;;;;21.40;99709.00;;;;2080175;28;20221;-69
2023/12/08 00:15:00;;;;;;;10.27;7.87;;;;;21.40;99715.00;;;;2070438;28;20260;-69
2023/12/08 00:16:01;;;;;;;9.13;7.07;;;;;21.40;99711.00;;;;2079499;28;20213;-69
2023/12/08 00:17:01;;;;;;;9.83;6.80;;;;;21.40;99720.00;;;;2079987;28;20252;-69
2023/12/08 00:18:01;;;;;;;10.10;8.00;;;;;21.40;99730.00;;;;2079203;28;20220;-69
2023/12/08 00:19:02;;;;;;;8.00;6.90;;;;;21.40;99731.00;;;;2080096;28;20218;-69
2023/12/08 00:20:03;;;;;;;7.50;6.47;;;;;21.40;99733.00;;;;2067911;28;20240;-69
2023/12/08 00:21:03;;;;;;;9.10;6.43;;;;;21.40;99729.00;;;;2079939;28;20287;-69
2023/12/08 00:22:04;;;;;;;8.33;6.20;;;;;21.30;99725.00;;;;2077975;28;20643;-69
2023/12/08 00:23:04;;;;;;;11.70;6.63;;;;;21.30;99730.00;;;;2079503;28;20221;-69
2023/12/08 00:24:05;;;;;;;9.43;6.47;;;;;21.30;99713.00;;;;2079686;28;20241;-69
2023/12/08 00:25:05;;;;;;;10.67;6.23;;;;;21.30;99708.00;;;;2070083;28;20236;-69
2023/12/08 00:26:05;;;;;;;6.83;5.93;;;;;21.30;99708.00;;;;2079820;28;20267;-69
2023/12/08 00:27:07;;;;;;;8.07;6.00;;;;;21.30;99709.00;;;;2079103;28;20224;-69
2023/12/08 00:28:08;;;;;;;7.50;6.05;;;;;21.30;99704.00;;;;2077456;28;20213;-69
2023/12/08 00:29:08;;;;;;;6.80;5.93;;;;;21.30;99706.00;;;;2079992;28;20251;-69
2023/12/08 00:30:09;;;;;;;9.27;5.77;;;;;21.30;99699.00;;;;2069700;28;20660;-69
2023/12/08 00:31:09;;;;;;;7.20;5.70;;;;;21.30;99702.00;;;;2078001;28;20844;-69
2023/12/08 00:32:10;;;;;;;7.20;5.83;;;;;21.30;99707.00;;;;2079231;28;20229;-69
2023/12/08 00:33:10;;;;;;;11.63;6.93;;;;;21.30;99716.00;;;;2079649;28;20220;-69
2023/12/08 00:34:10;;;;;;;6.17;5.03;;;;;21.30;99697.00;;;;2077270;28;20209;-69
2023/12/08 00:35:11;;;;;;;8.73;6.60;;;;;21.20;99708.00;;;;2065929;28;20217;-69
2023/12/08 00:36:18;;;;;;;6.50;4.63;;;;;21.20;99705.00;;;;2079758;28;20236;-69
2023/12/08 00:37:18;;;;;;;8.55;5.18;;;;;21.20;99693.00;;;;2077832;28;20221;-69
2023/12/08 00:38:19;;;;;;;6.63;5.73;;;;;21.20;99673.00;;;;2079661;28;20561;-69
2023/12/08 00:39:22;;;;;;;5.90;4.90;;;;;21.20;99689.00;;;;2079373;28;20205;-69
2023/12/08 00:40:22;;;;;;;6.82;5.05;;;;;21.20;99690.00;;;;2069804;28;20448;-69
2023/12/08 00:41:23;;;;;;;7.10;5.67;;;;;21.20;99688.00;;;;2078756;28;20735;-69
2023/12/08 00:42:23;;;;;;;8.02;5.15;;;;;21.20;99679.00;;;;2079895;28;20217;-69
2023/12/08 00:43:24;;;;;;;6.57;4.80;;;;;21.20;99684.00;;;;2079927;28;20229;-69
2023/12/08 00:44:24;;;;;;;8.57;5.47;;;;;21.20;99684.00;;;;2079027;28;20240;-68
2023/12/08 00:45:24;;;;;;;6.83;5.00;;;;;21.00;99685.00;;;;2068482;28;20217;-69
2023/12/08 00:46:25;;;;;;;6.10;4.80;;;;;21.10;99682.00;;;;2075316;28;20279;-69
2023/12/08 00:47:25;;;;;;;7.93;4.93;;;;;21.10;99683.00;;;;2079008;28;20589;-69
2023/12/08 00:48:25;;;;;;;6.67;4.77;;;;;21.20;99689.00;;;;2078661;28;20257;-69
2023/12/08 00:49:26;;;;;;;7.77;5.03;;;;;21.10;99694.00;;;;2073963;28;20221;-68
2023/12/08 00:50:26;;;;;;;6.40;5.03;;;;;21.10;99692.00;;;;2073401;28;20217;-67
2023/12/08 00:51:26;;;;;;;5.30;4.40;;;;;21.10;99684.00;;;;2079066;28;20210;-66
2023/12/08 00:52:27;;;;;;;6.90;5.20;;;;;20.90;99684.00;;;;2079749;28;20228;-67
2023/12/08 00:53:27;;;;;;;6.50;5.20;;;;;21.10;99682.00;;;;2077884;28;20209;-66
2023/12/08 00:54:27;;;;;;;6.10;5.10;;;;;21.10;99680.00;;;;2069019;28;20644;-67
2023/12/08 00:55:28;;;;;;;6.43;5.00;;;;;21.10;99678.00;;;;2079330;28;20233;-67
2023/12/08 00:56:28;;;;;;;6.73;5.40;;;;;21.10;99684.00;;;;2083258;28;20201;-67
2023/12/08 00:57:28;;;;;;;6.60;5.60;;;;;21.10;99679.00;;;;2078210;28;20243;-66
2023/12/08 00:58:29;;;;;;;8.23;6.30;;;;;21.10;99675.00;;;;2078925;28;20212;-67
2023/12/08 00:59:29;;;;;;;11.97;9.17;;;;;21.10;99672.00;;;;2070116;28;20213;-67
2023/12/08 01:00:29;;;;;;;14.40;11.50;;;;;21.10;99665.00;;;;2083894;28;20221;-66
2023/12/08 01:01:30;;;;;;;17.60;11.60;;;;;21.10;99665.00;;;;2088326;28;20246;-67
2023/12/08 01:02:30;;;;;;;16.87;13.63;;;;;21.10;99664.00;;;;2077434;28;20233;-67
2023/12/08 01:03:30;;;;;;;20.80;16.00;;;;;21.00;99662.00;;;;2076265;28;20225;-66
2023/12/08 01:04:31;;;;;;;21.93;17.27;;;;;21.00;99662.00;;;;2070226;28;20216;-69
2023/12/08 01:05:31;;;;;;;28.07;18.40;;;;;21.00;99657.00;;;;2075433;28;20206;-69
2023/12/08 01:06:31;;;;;;;24.97;17.47;;;;;21.00;99652.00;;;;2079682;28;20225;-69
2023/12/08 01:07:32;;;;;;;26.67;20.20;;;;;21.00;99645.00;;;;2078172;28;20217;-69
2023/12/08 01:08:32;;;;;;;28.17;20.03;;;;;21.00;99649.00;;;;2079521;28;20221;-69
2023/12/08 01:09:32;;;;;;;28.30;20.00;;;;;21.00;99617.00;;;;2068688;28;20218;-69
2023/12/08 01:10:33;;;;;;;26.30;20.00;;;;;21.00;99639.00;;;;2076413;28;20225;-69
2023/12/08 01:11:33;;;;;;;26.07;20.43;;;;;21.00;99654.00;;;;2079512;28;20224;-69
2023/12/08 01:12:33;;;;;;;29.23;21.70;;;;;21.00;99653.00;;;;2078993;28;20205;-69
2023/12/08 01:13:34;;;;;;;28.10;20.30;;;;;21.00;99656.00;;;;2077573;28;20225;-69
2023/12/08 01:14:34;;;;;;;26.13;20.60;;;;;21.00;99669.00;;;;2069521;28;20233;-66
2023/12/08 01:15:34;;;;;;;29.43;21.30;;;;;21.00;99656.00;;;;2079232;28;20235;-66
2023/12/08 01:16:41;;;;;;;29.20;21.77;;;;;21.00;99654.00;;;;2078725;28;20590;-69
2023/12/08 01:17:41;;;;;;;32.97;21.73;;;;;21.00;99644.00;;;;2081178;28;20229;-69
2023/12/08 01:18:41;;;;;;;26.50;19.20;;;;;21.00;99649.00;;;;2078129;28;20217;-69
2023/12/08 01:19:42;;;;;;;29.47;20.97;;;;;21.00;99642.00;;;;2067962;28;20263;-69
2023/12/08 01:20:42;;;;;;;27.33;21.40;;;;;20.90;99647.00;;;;2084565;28;20233;-69
2023/12/08 01:21:42;;;;;;;28.27;20.63;;;;;20.90;99652.00;;;;2079771;28;20217;-69
2023/12/08 01:22:43;;;;;;;28.70;20.60;;;;;20.90;99654.00;;;;2079463;28;20220;-69
2023/12/08 01:23:43;;;;;;;26.67;20.23;;;;;20.90;99657.00;;;;2079789;28;20230;-69
2023/12/08 01:24:43;;;;;;;29.30;19.17;;;;;20.90;99650.00;;;;2069802;28;20260;-69
2023/12/08 01:25:43;;;;;;;26.40;18.90;;;;;20.90;99652.00;;;;2078544;28;20229;-69
2023/12/08 01:26:44;;;;;;;27.13;19.70;;;;;20.90;99647.00;;;;2079010;28;20241;-69
2023/12/08 01:27:44;;;;;;;26.87;18.77;;;;;20.90;99639.00;;;;2076338;28;20233;-69
2023/12/08 01:28:45;;;;;;;26.77;20.13;;;;;20.90;99647.00;;;;2079519;28;20223;-69
2023/12/08 01:29:45;;;;;;;24.57;18.77;;;;;20.90;99643.00;;;;2069292;28;20229;-69
2023/12/08 01:30:45;;;;;;;27.10;19.60;;;;;20.70;99640.00;;;;2079632;28;20237;-69
2023/12/08 01:31:46;;;;;;;21.23;16.50;;;;;20.90;99646.00;;;;2079170;28;20297;-69
2023/12/08 01:32:46;;;;;;;24.40;17.13;;;;;20.90;99639.00;;;;2079159;28;20697;-69
2023/12/08 01:33:46;;;;;;;23.33;17.40;;;;;20.90;99647.00;;;;2079657;28;20856;-69
2023/12/08 01:34:47;;;;;;;24.40;16.00;;;;;20.90;99651.00;;;;2069430;28;20248;-69
2023/12/08 01:35:47;;;;;;;24.00;16.63;;;;;20.90;99653.00;;;;2079787;28;20237;-69
2023/12/08 01:36:47;;;;;;;23.83;17.07;;;;;20.90;99671.00;;;;2079110;28;20617;-69
2023/12/08 01:37:48;;;;;;;20.80;16.07;;;;;20.90;99666.00;;;;2077541;28;20694;-69
2023/12/08 01:38:48;;;;;;;21.80;15.30;;;;;20.80;99665.00;;;;2078841;28;20629;-69
2023/12/08 01:39:48;;;;;;;19.50;14.97;;;;;20.80;99659.00;;;;2070256;28;20647;-69
2023/12/08 01:40:49;;;;;;;19.23;15.03;;;;;20.80;99652.00;;;;2079779;28;20229;-69
2023/12/08 01:41:50;;;;;;;19.70;15.27;;;;;20.90;99651.00;;;;2079287;28;20229;-69
2023/12/08 01:42:51;;;;;;;18.10;14.02;;;;;20.80;99652.00;;;;2079373;28;20633;-69
2023/12/08 01:43:51;;;;;;;16.87;14.43;;;;;20.80;99647.00;;;;2078367;28;20232;-69
2023/12/08 01:44:51;;;;;;;18.93;14.03;;;;;20.80;99639.00;;;;2072819;28;20221;-69
2023/12/08 01:45:52;;;;;;;19.43;12.80;;;;;20.80;99635.00;;;;2079683;28;20320;-69
2023/12/08 01:46:52;;;;;;;21.80;15.10;;;;;20.80;99641.00;;;;2078479;28;20263;-69
2023/12/08 01:47:52;;;;;;;18.30;13.60;;;;;20.80;99644.00;;;;2070880;28;20230;-69
2023/12/08 01:48:53;;;;;;;18.13;13.30;;;;;20.80;99637.00;;;;2071132;28;20262;-69
2023/12/08 01:49:53;;;;;;;17.93;12.70;;;;;20.80;99660.00;;;;2073390;28;20233;-76
2023/12/08 01:50:53;;;;;;;17.20;12.50;;;;;20.80;99673.00;;;;2086646;28;20217;-72
2023/12/08 01:51:54;;;;;;;17.00;12.90;;;;;20.80;99676.00;;;;2075072;28;20221;-69
2023/12/08 01:52:54;;;;;;;13.10;11.10;;;;;20.80;99669.00;;;;2080458;28;20225;-69
2023/12/08 01:53:54;;;;;;;16.70;12.70;;;;;20.80;99668.00;;;;2080902;28;20267;-69
2023/12/08 01:54:55;;;;;;;15.33;12.20;;;;;20.80;99659.00;;;;2062957;28;20234;-69
2023/12/08 01:55:56;;;;;;;14.73;11.20;;;;;20.80;99657.00;;;;2069823;28;20229;-69
2023/12/08 01:56:56;;;;;;;14.93;10.70;;;;;20.80;99647.00;;;;2077315;28;20621;-69
2023/12/08 01:57:57;;;;;;;13.87;10.40;;;;;20.80;99656.00;;;;2080890;28;20227;-69
2023/12/08 01:58:57;;;;;;;14.77;10.87;;;;;20.80;99651.00;;;;2080827;28;20210;-69
2023/12/08 01:59:57;;;;;;;15.17;10.90;;;;;20.80;99655.00;;;;2071488;28;20311;-69
2023/12/08 02:00:58;;;;;;;13.33;10.50;;;;;20.80;99658.00;;;;2079388;28;20210;-69
2023/12/08 02:01:58;;;;;;;15.53;10.07;;;;;20.70;99655.00;;;;2080313;28;20213;-69
2023/12/08 02:02:58;;;;;;;12.83;9.97;;;;;20.70;99646.00;;;;2079877;28;20236;-69
2023/12/08 02:03:59;;;;;;;13.17;9.97;;;;;20.70;99651.00;;;;2080589;28;20210;-69
2023/12/08 02:04:59;;;;;;;13.90;9.90;;;;;20.70;99639.00;;;;2071618;28;20238;-69
2023/12/08 02:05:59;;;;;;;13.20;9.33;;;;;20.70;99636.00;;;;2079393;28;20237;-69
2023/12/08 02:07:00;;;;;;;14.03;9.37;;;;;20.70;99642.00;;;;2079069;28;20240;-69
2023/12/08 02:08:00;;;;;;;12.47;9.60;;;;;20.70;99639.00;;;;2080259;28;20259;-69
2023/12/08 02:09:00;;;;;;;14.03;9.77;;;;;20.70;99642.00;;;;2083201;28;20197;-69
2023/12/08 02:10:01;;;;;;;10.90;8.67;;;;;20.60;99644.00;;;;2072156;28;20233;-69
2023/12/08 02:11:02;;;;;;;11.27;8.97;;;;;20.70;99640.00;;;;2083908;28;20214;-69
2023/12/08 02:12:02;;;;;;;14.33;8.77;;;;;20.70;99565.00;;;;2081174;28;20471;-69
2023/12/08 02:13:03;;;;;;;10.00;8.33;;;;;20.70;99636.00;;;;2079718;28;20213;-69
2023/12/08 02:14:03;;;;;;;11.90;9.00;;;;;20.70;99641.00;;;;2079208;28;20733;-69
2023/12/08 02:15:04;;;;;;;10.23;8.57;;;;;20.70;99641.00;;;;2072065;28;20235;-69
2023/12/08 02:16:07;;;;;;;12.50;7.77;;;;;20.70;99643.00;;;;2080685;28;20222;-69
2023/12/08 02:17:11;;;;;;;11.60;8.95;;;;;20.70;99643.00;;;;2070449;28;20210;-69
2023/12/08 02:18:13;;;;;;;10.55;9.15;;;;;20.70;99641.00;;;;2078838;28;20213;-69
2023/12/08 02:19:14;;;;;;;10.85;8.05;;;;;20.70;99575.00;;;;2080086;28;20247;-69
2023/12/08 02:20:14;;;;;;;9.90;7.97;;;;;20.70;99573.00;;;;2061118;28;20345;-69
2023/12/08 02:21:14;;;;;;;11.53;8.57;;;;;20.70;99561.00;;;;2069982;28;20242;-69
2023/12/08 02:22:18;;;;;;;9.87;7.33;;;;;20.60;99639.00;;;;2070048;28;20265;-69
2023/12/08 02:23:18;;;;;;;9.52;7.43;;;;;20.60;99633.00;;;;2074980;28;20222;-69
2023/12/08 02:24:19;;;;;;;10.73;7.77;;;;;20.60;99628.00;;;;2079175;28;20240;-69
2023/12/08 02:25:19;;;;;;;9.77;7.37;;;;;20.60;99627.00;;;;2071345;28;20209;-69
2023/12/08 02:26:20;;;;;;;8.50;7.00;;;;;20.60;99621.00;;;;2080576;28;20225;-69
2023/12/08 02:27:20;;;;;;;10.10;7.20;;;;;20.60;99622.00;;;;2079553;28;20721;-69
2023/12/08 02:28:20;;;;;;;8.13;7.00;;;;;20.60;99621.00;;;;2071619;28;20226;-69
2023/12/08 02:29:21;;;;;;;8.77;7.60;;;;;20.60;99621.00;;;;2077178;28;20214;-69
2023/12/08 02:30:21;;;;;;;7.90;6.67;;;;;20.60;99613.00;;;;2070225;28;20210;-69
2023/12/08 02:31:24;;;;;;;9.30;7.23;;;;;20.60;99614.00;;;;2078485;28;20227;-69
2023/12/08 02:32:55;;;;;;;8.55;6.65;;;;;20.60;99616.00;;;;2062834;28;20756;-69
2023/12/08 02:33:55;;;;;;;8.32;6.65;;;;;20.60;99620.00;;;;2075081;28;20267;-69
2023/12/08 02:34:56;;;;;;;7.70;6.27;;;;;20.60;99617.00;;;;2060343;28;20223;-69
2023/12/08 02:35:56;;;;;;;8.37;6.20;;;;;20.60;99611.00;;;;2070474;28;20248;-69
2023/12/08 02:36:56;;;;;;;6.90;6.10;;;;;20.60;99538.00;;;;2071644;28;20316;-69
2023/12/08 02:37:57;;;;;;;7.50;6.13;;;;;20.60;99608.00;;;;2062707;28;20498;-75
2023/12/08 02:38:57;;;;;;;8.03;7.20;;;;;20.60;99605.00;;;;2062035;28;20211;-72
2023/12/08 02:39:57;;;;;;;8.03;6.50;;;;;20.60;99585.00;;;;2069302;28;21538;-73
2023/12/08 02:40:58;;;;;;;10.20;7.10;;;;;20.60;99600.00;;;;2068838;28;20222;-72
2023/12/08 02:41:58;;;;;;;8.90;6.17;;;;;20.60;99592.00;;;;2063761;28;20770;-72
2023/12/08 02:42:58;;;;;;;7.00;5.90;;;;;20.50;99598.00;;;;2079847;28;20717;-70
2023/12/08 02:43:59;;;;;;;7.60;6.40;;;;;20.60;99608.00;;;;2079627;28;21007;-69
2023/12/08 02:44:59;;;;;;;7.80;6.33;;;;;20.60;99566.00;;;;2071003;28;20222;-69
2023/12/08 02:45:59;;;;;;;6.70;5.73;;;;;20.60;99608.00;;;;2080075;28;20564;-69
2023/12/08 02:47:00;;;;;;;7.00;5.87;;;;;20.50;99607.00;;;;2080124;28;20701;-69
2023/12/08 02:48:00;;;;;;;6.73;5.37;;;;;20.60;99598.00;;;;2080026;28;20728;-69
2023/12/08 02:49:00;;;;;;;6.93;6.13;;;;;20.60;99596.00;;;;2071615;28;20713;-69
2023/12/08 02:50:01;;;;;;;6.90;5.83;;;;;20.60;99600.00;;;;2061749;28;20236;-69
2023/12/08 02:51:02;;;;;;;8.10;6.23;;;;;20.50;99597.00;;;;2085295;28;20233;-69
2023/12/08 02:52:03;;;;;;;7.22;5.53;;;;;20.50;99605.00;;;;2083869;28;20221;-69
2023/12/08 02:53:03;;;;;;;7.20;5.43;;;;;20.50;99599.00;;;;2079579;28;20797;-69
2023/12/08 02:54:04;;;;;;;6.20;5.53;;;;;20.50;99607.00;;;;2079178;28;20705;-69
2023/12/08 02:55:04;;;;;;;5.90;5.10;;;;;20.50;99599.00;;;;2075134;28;20224;-69
2023/12/08 02:56:05;;;;;;;6.40;5.50;;;;;20.50;99607.00;;;;2087654;28;20216;-69
2023/12/08 02:57:05;;;;;;;6.93;5.33;;;;;20.50;99603.00;;;;2082422;28;20220;-69
2023/12/08 02:58:06;;;;;;;6.63;5.30;;;;;20.50;99610.00;;;;2078302;28;20308;-69
2023/12/08 02:59:06;;;;;;;6.27;5.30;;;;;20.50;99605.00;;;;2080449;28;20256;-69
2023/12/08 03:00:07;;;;;;;5.40;4.40;;;;;20.50;99601.00;;;;2069345;28;20263;-69
2023/12/08 03:01:07;;;;;;;5.90;4.53;;;;;20.50;99603.00;;;;2088202;28;20204;-69
2023/12/08 03:02:07;;;;;;;6.20;5.60;;;;;20.50;99597.00;;;;2083146;28;20453;-69
2023/12/08 03:03:08;;;;;;;6.80;5.17;;;;;20.50;99603.00;;;;2080002;28;20255;-69
2023/12/08 03:04:08;;;;;;;7.70;5.90;;;;;20.50;99593.00;;;;2074206;28;20217;-69
2023/12/08 03:05:09;;;;;;;6.70;5.37;;;;;20.50;99589.00;;;;2072860;28;20247;-69
2023/12/08 03:06:09;;;;;;;6.47;4.77;;;;;20.50;99583.00;;;;2084871;28;20224;-69
2023/12/08 03:07:09;;;;;;;6.93;5.10;;;;;20.50;99586.00;;;;2080017;28;20218;-69
2023/12/08 03:08:10;;;;;;;5.73;4.87;;;;;20.50;99579.00;;;;2081365;28;20631;-69
2023/12/08 03:09:10;;;;;;;5.73;4.50;;;;;20.50;99571.00;;;;2077716;28;20256;-66
2023/12/08 03:10:10;;;;;;;6.17;5.07;;;;;20.50;99576.00;;;;2069482;28;20644;-66
2023/12/08 03:11:11;;;;;;;5.73;5.13;;;;;20.50;99574.00;;;;2085592;28;20278;-66
2023/12/08 03:12:11;;;;;;;6.03;4.90;;;;;20.50;99570.00;;;;2080560;28;20670;-66
2023/12/08 03:13:11;;;;;;;5.10;4.47;;;;;20.40;99565.00;;;;2080151;28;20291;-67
2023/12/08 03:14:12;;;;;;;5.70;4.80;;;;;20.50;99574.00;;;;2079553;28;20233;-66
2023/12/08 03:15:12;;;;;;;5.70;4.80;;;;;20.50;99572.00;;;;2069420;28;20382;-66
2023/12/08 03:16:12;;;;;;;6.07;4.90;;;;;20.50;99560.00;;;;2077587;28;20226;-66
2023/12/08 03:17:13;;;;;;;5.73;4.80;;;;;20.50;99555.00;;;;2080835;28;20278;-66
2023/12/08 03:18:14;;;;;;;6.27;4.70;;;;;20.40;99554.00;;;;2078559;28;20280;-66
2023/12/08 03:19:14;;;;;;;5.57;4.83;;;;;20.40;99551.00;;;;2079671;28;20464;-66
2023/12/08 03:20:14;;;;;;;6.20;4.70;;;;;20.40;99539.00;;;;2068675;28;20828;-67
2023/12/08 03:21:24;;;;;;;5.97;4.70;;;;;20.40;99542.00;;;;2080356;28;20693;-66
2023/12/08 03:22:25;;;;;;;5.75;4.63;;;;;20.40;99552.00;;;;2072939;28;20586;-66
2023/12/08 03:23:25;;;;;;;5.60;4.60;;;;;20.40;99476.00;;;;2079801;28;20224;-66
2023/12/08 03:24:25;;;;;;;5.87;4.67;;;;;20.40;99550.00;;;;2078889;28;20587;-67
2023/12/08 03:25:26;;;;;;;5.60;4.73;;;;;20.50;99536.00;;;;2069370;28;20213;-66
2023/12/08 03:26:26;;;;;;;5.57;4.03;;;;;20.40;99544.00;;;;2077281;28;20225;-66
2023/12/08 03:27:26;;;;;;;4.70;4.20;;;;;20.40;99550.00;;;;2080157;28;20218;-66
2023/12/08 03:28:26;;;;;;;5.43;4.13;;;;;20.40;99536.00;;;;2080021;28;20217;-67
2023/12/08 03:29:27;;;;;;;4.50;3.90;;;;;20.40;99540.00;;;;2079735;28;20217;-67
2023/12/08 03:30:27;;;;;;;5.90;4.30;;;;;20.40;99537.00;;;;2075507;28;20221;-67
2023/12/08 03:31:30;;;;;;;5.87;4.73;;;;;20.40;99534.00;;;;2079259;28;20255;-67
2023/12/08 03:32:31;;;;;;;6.65;5.00;;;;;20.40;99534.00;;;;2071042;28;20218;-67
2023/12/08 03:33:31;;;;;;;4.63;4.03;;;;;20.40;99532.00;;;;2079909;28;20213;-67
2023/12/08 03:34:32;;;;;;;6.07;4.67;;;;;20.40;99536.00;;;;2070684;28;20230;-67
2023/12/08 03:35:32;;;;;;;6.53;4.20;;;;;20.40;99532.00;;;;2079696;28;20225;-67
2023/12/08 03:36:33;;;;;;;5.63;4.53;;;;;20.40;99527.00;;;;2078127;28;20218;-67
2023/12/08 03:37:33;;;;;;;4.47;4.03;;;;;20.40;99530.00;;;;2080010;28;20232;-67
2023/12/08 03:38:33;;;;;;;7.50;4.10;;;;;20.40;99533.00;;;;2081752;28;22232;-74
2023/12/08 03:39:33;;;;;;;5.37;4.30;;;;;20.40;99463.00;;;;2070688;28;20236;-70
2023/12/08 03:40:34;;;;;;;6.63;4.80;;;;;20.40;99529.00;;;;2078242;28;20237;-70
2023/12/08 03:41:34;;;;;;;5.57;4.20;;;;;20.40;99529.00;;;;2078074;28;20232;-67
2023/12/08 03:42:36;;;;;;;6.57;4.13;;;;;20.40;99524.00;;;;2079861;28;20634;-67
2023/12/08 03:43:37;;;;;;;5.00;4.20;;;;;20.40;99526.00;;;;2079402;28;20202;-67
2023/12/08 03:44:37;;;;;;;9.67;3.70;;;;;20.30;99522.00;;;;2069259;28;20234;-67
2023/12/08 03:45:37;;;;;;;7.83;4.30;;;;;20.40;99524.00;;;;2080729;28;20258;-67
2023/12/08 03:46:37;;;;;;;5.50;4.53;;;;;20.30;99517.00;;;;2080270;28;20252;-67
2023/12/08 03:47:38;;;;;;;4.63;4.10;;;;;20.30;99517.00;;;;2079891;28;20237;-67
2023/12/08 03:48:38;;;;;;;5.20;3.77;;;;;20.30;99511.00;;;;2085773;28;20236;-67
2023/12/08 03:49:39;;;;;;;5.77;3.93;;;;;20.30;99502.00;;;;2070333;28;20240;-67
2023/12/08 03:50:39;;;;;;;5.53;3.93;;;;;20.30;99504.00;;;;2078413;28;20216;-67
2023/12/08 03:51:39;;;;;;;5.37;3.83;;;;;20.30;99500.00;;;;2073515;28;20229;-67
2023/12/08 03:52:39;;;;;;;5.80;3.80;;;;;20.30;99506.00;;;;2079233;28;20202;-67
2023/12/08 03:53:40;;;;;;;5.03;3.93;;;;;20.30;99508.00;;;;2083767;28;20247;-67
2023/12/08 03:54:40;;;;;;;5.73;4.17;;;;;20.30;99500.00;;;;2070611;28;20206;-67
2023/12/08 03:55:40;;;;;;;4.40;3.70;;;;;20.30;99498.00;;;;2081745;28;20228;-67
2023/12/08 03:56:41;;;;;;;4.60;4.07;;;;;20.30;99492.00;;;;2078955;28;20237;-67
2023/12/08 03:57:41;;;;;;;4.40;3.60;;;;;20.30;99496.00;;;;2078485;28;20214;-67
2023/12/08 03:58:42;;;;;;;5.00;3.80;;;;;20.30;99493.00;;;;2078408;28;20213;-67
2023/12/08 03:59:42;;;;;;;4.50;4.07;;;;;20.30;99493.00;;;;2061365;28;20777;-67
2023/12/08 04:00:42;;;;;;;5.10;4.10;;;;;20.30;99495.00;;;;2087749;28;20221;-67
2023/12/08 04:01:43;;;;;;;5.50;4.33;;;;;20.30;99501.00;;;;2085450;28;20232;-67
2023/12/08 04:02:43;;;;;;;4.00;3.57;;;;;20.30;99517.00;;;;2079246;28;20206;-67
2023/12/08 04:03:43;;;;;;;4.30;3.53;;;;;20.30;99511.00;;;;2080119;28;20216;-67
2023/12/08 04:04:44;;;;;;;4.50;3.90;;;;;20.30;99508.00;;;;2070043;28;20331;-67
2023/12/08 04:05:44;;;;;;;5.03;4.33;;;;;20.30;99517.00;;;;2080115;28;20581;-67
2023/12/08 04:06:44;;;;;;;6.30;3.90;;;;;20.30;99515.00;;;;2079667;28;20229;-67
2023/12/08 04:07:45;;;;;;;4.60;3.80;;;;;20.30;99513.00;;;;2085202;28;20212;-67
2023/12/08 04:08:45;;;;;;;4.53;3.87;;;;;20.20;99522.00;;;;2079926;28;20239;-67
2023/12/08 04:09:45;;;;;;;4.23;3.77;;;;;20.30;99519.00;;;;2070082;28;20206;-67
2023/12/08 04:10:46;;;;;;;6.10;4.10;;;;;20.30;99525.00;;;;2080268;28;20233;-67
2023/12/08 04:11:47;;;;;;;4.68;3.75;;;;;20.30;99518.00;;;;2080418;28;20210;-67
2023/12/08 04:12:47;;;;;;;5.57;3.90;;;;;20.30;99512.00;;;;2086564;28;20262;-67
2023/12/08 04:13:47;;;;;;;4.03;3.63;;;;;20.30;99523.00;;;;2080142;28;20209;-67
2023/12/08 04:14:48;;;;;;;4.53;3.77;;;;;20.30;99516.00;;;;2073558;28;20254;-67
2023/12/08 04:15:49;;;;;;;4.60;3.83;;;;;20.30;99521.00;;;;2079563;28;20217;-67
2023/12/08 04:16:52;;;;;;;4.68;4.20;;;;;20.30;99516.00;;;;2079670;28;20202;-67
2023/12/08 04:17:52;;;;;;;5.13;4.20;;;;;20.30;99517.00;;;;2080336;28;20214;-67
2023/12/08 04:18:53;;;;;;;3.97;3.53;;;;;20.20;99521.00;;;;2079353;28;20221;-67
2023/12/08 04:19:53;;;;;;;4.77;4.13;;;;;20.30;99516.00;;;;2076148;28;20228;-67
2023/12/08 04:20:53;;;;;;;4.10;3.67;;;;;20.30;99510.00;;;;2080147;28;20213;-67
2023/12/08 04:21:54;;;;;;;5.23;4.07;;;;;20.20;99504.00;;;;2079444;28;20240;-67
2023/12/08 04:22:54;;;;;;;3.87;3.30;;;;;20.20;99499.00;;;;2080218;28;20217;-67
2023/12/08 04:23:54;;;;;;;5.23;4.30;;;;;20.30;99507.00;;;;2079235;28;23315;-67
2023/12/08 04:24:55;;;;;;;4.77;3.83;;;;;20.20;99495.00;;;;2075829;28;21047;-67
2023/12/08 04:25:55;;;;;;;5.20;4.70;;;;;20.20;99493.00;;;;2079462;28;20746;-67
2023/12/08 04:26:55;;;;;;;4.27;3.87;;;;;20.20;99492.00;;;;2079996;28;20221;-67
2023/12/08 04:27:56;;;;;;;4.67;3.80;;;;;20.20;99491.00;;;;2080000;28;20250;-67
2023/12/08 04:28:56;;;;;;;4.33;3.63;;;;;20.20;99490.00;;;;2078244;28;20218;-67
2023/12/08 04:29:56;;;;;;;5.17;3.83;;;;;20.20;99494.00;;;;2070430;28;20228;-67
2023/12/08 04:30:57;;;;;;;4.60;3.63;;;;;20.20;99492.00;;;;2079477;28;20213;-67
2023/12/08 04:31:57;;;;;;;5.03;3.73;;;;;20.20;99491.00;;;;2079918;28;20221;-67
2023/12/08 04:32:58;;;;;;;6.10;3.93;;;;;20.20;99490.00;;;;2079710;28;20248;-67
2023/12/08 04:33:58;;;;;;;4.80;3.57;;;;;20.20;99498.00;;;;2079687;28;20209;-67
2023/12/08 04:34:58;;;;;;;4.20;3.63;;;;;20.20;99499.00;;;;2073752;28;20243;-67
2023/12/08 04:35:59;;;;;;;3.93;3.37;;;;;20.20;99488.00;;;;2085352;28;20270;-67
2023/12/08 04:36:59;;;;;;;5.43;3.93;;;;;20.20;99488.00;;;;2083508;28;20230;-66
2023/12/08 04:38:00;;;;;;;4.20;3.43;;;;;20.20;99489.00;;;;2079048;28;20226;-67
2023/12/08 04:39:00;;;;;;;5.20;3.90;;;;;20.20;99490.00;;;;2079478;28;20233;-67
2023/12/08 04:40:00;;;;;;;5.00;3.90;;;;;20.20;99492.00;;;;2070402;28;20213;-67
2023/12/08 04:41:01;;;;;;;5.70;4.10;;;;;20.20;99499.00;;;;2079488;28;20228;-67
2023/12/08 04:42:01;;;;;;;4.90;3.47;;;;;20.20;99497.00;;;;2080030;28;20245;-67
2023/12/08 04:43:01;;;;;;;4.97;3.20;;;;;20.20;99487.00;;;;2079683;28;20275;-67
2023/12/08 04:44:02;;;;;;;5.67;4.13;;;;;20.20;99487.00;;;;2080088;28;20225;-67
2023/12/08 04:45:04;;;;;;;4.72;4.05;;;;;20.20;99482.00;;;;2069566;28;20287;-67
2023/12/08 04:46:04;;;;;;;4.25;3.85;;;;;20.20;99485.00;;;;2079263;28;20228;-67
2023/12/08 04:47:05;;;;;;;4.83;3.90;;;;;20.20;99488.00;;;;2079280;28;20217;-67
2023/12/08 04:48:05;;;;;;;4.83;3.60;;;;;20.20;99496.00;;;;2078548;28;20220;-67
2023/12/08 04:49:05;;;;;;;4.60;3.47;;;;;20.20;99491.00;;;;2079948;28;20217;-67
2023/12/08 04:50:06;;;;;;;5.13;3.90;;;;;20.20;99494.00;;;;2069750;28;20217;-67
2023/12/08 04:51:06;;;;;;;4.53;3.60;;;;;20.20;99500.00;;;;2079970;28;20221;-67
2023/12/08 04:52:07;;;;;;;4.00;3.53;;;;;20.10;99516.00;;;;2077552;28;21070;-67
2023/12/08 04:53:07;;;;;;;6.17;3.80;;;;;20.20;99508.00;;;;2077652;28;20705;-67
2023/12/08 04:54:07;;;;;;;5.63;4.20;;;;;20.20;99509.00;;;;2080000;28;20216;-67
2023/12/08 04:55:08;;;;;;;5.37;4.00;;;;;20.10;99504.00;;;;2069699;28;20217;-67
2023/12/08 04:56:08;;;;;;;3.87;3.40;;;;;20.20;99508.00;;;;2078799;28;20221;-67
2023/12/08 04:57:08;;;;;;;4.33;3.57;;;;;20.10;99508.00;;;;2077650;28;20217;-67
2023/12/08 04:58:09;;;;;;;4.40;3.60;;;;;20.10;99508.00;;;;2083304;28;20213;-67
2023/12/08 04:59:09;;;;;;;4.10;3.70;;;;;20.10;99513.00;;;;2079487;28;20287;-67
2023/12/08 05:00:10;;;;;;;4.10;3.60;;;;;20.10;99512.00;;;;2070030;28;20206;-67
2023/12/08 05:01:14;;;;;;;4.90;3.77;;;;;19.90;99508.00;;;;2079925;28;20225;-67
2023/12/08 05:02:14;;;;;;;4.65;3.20;;;;;20.10;99503.00;;;;2078073;28;20229;-67